Pagrindinis puslapis
METAR-TAF:

METAR-TAF

Oro uostai :

Cheres de la Frontera, Ispanija

platuma: 36-45N, ilguma: 006-04W, Aukštis: 27 m

Dabartinis oras

Ataskaita buvo paskelbta 30 minutes, ne 21:30 UTC
Vėjas 2 kt iš Rytų
Temperatūra 18°C
Drėgmė 68%
Slėgis 1018 hPa
Matomumas: 9000 m

METAR: LEJR 152130Z AUTO 09002KT 9000 NCD 18/12 Q1018

Laikas: 00:00 (22:00 UTC)

Prognozė

Ataskaita buvo paskelbta 2 valandos ir 0 minutes, ne 20:00 UTC
Prognozė galioja nuo 15 metu 21 UTC su 16 metu 21 UTC
Vėjas 2 kt nuo kintamojo kryptimis
Matomumas 10 km arba daugiau
nėra debesų žemiau 1500 m ir nėra kamuolinių lietaus debesų

TAF: LEJR 152000Z 1521/1621 VRB02KT CAVOK TX29/1614Z TN11/1606Z

Orai ataskaitas ir orų prognozės (METAR, TAF).

turimą stotys yra geltonos ir raudonos taškus žemėlapyje.

Perkelti pele per norėdami pamatyti stoties vardą.

Tada spustelėkite, norėdami matyti oro stebėjimo ir prognozės.

Norėdami pakeisti žemėlapį: spustelėkite ant žalios mygtukų su juodo kryžiaus žemyn,; žalią mygtuką su brūkšneliu, jei norite nutolinti; arba žalių rodyklių gretimoms žemėlapius.


METAR-TAF: